createdAt,value
2022-11-28T00:04:42.354Z,7.40
2022-11-28T00:09:45.953Z,7.30
2022-11-28T00:14:50.697Z,7.30
2022-11-28T00:19:54.051Z,7.20
2022-11-28T00:24:57.489Z,7.10
2022-11-28T00:30:02.651Z,7.00
2022-11-28T00:35:07.029Z,7.00
2022-11-28T00:40:11.559Z,6.90
2022-11-28T00:45:16.437Z,6.90
2022-11-28T00:50:19.852Z,6.80
2022-11-28T00:55:23.491Z,6.70
2022-11-28T01:00:28.435Z,6.60
2022-11-28T01:05:32.011Z,6.50
2022-11-28T01:10:35.371Z,6.50
2022-11-28T01:15:44.126Z,6.50
2022-11-28T01:20:47.501Z,6.50
2022-11-28T01:25:50.967Z,6.60
2022-11-28T01:30:56.330Z,6.60
2022-11-28T01:36:00.992Z,6.60
2022-11-28T01:41:04.779Z,6.50
2022-11-28T01:46:11.237Z,6.40
2022-11-28T01:51:14.977Z,6.20
2022-11-28T01:56:21.419Z,6.10
2022-11-28T02:01:26.818Z,6.00
2022-11-28T02:06:31.168Z,6.10
2022-11-28T02:12:02.481Z,6.00
2022-11-28T02:17:16.827Z,6.00
2022-11-28T02:22:24.897Z,5.80
2022-11-28T02:27:57.805Z,5.50
2022-11-28T02:33:14.216Z,5.40
2022-11-28T02:38:23.767Z,5.50
2022-11-28T02:43:33.950Z,5.50
2022-11-28T02:48:45.103Z,5.50
2022-11-28T02:53:50.612Z,5.70
2022-11-28T02:58:54.275Z,5.80
2022-11-28T03:04:09.417Z,5.90
2022-11-28T03:09:44.572Z,5.80
2022-11-28T03:14:53.290Z,5.80
2022-11-28T03:20:15.891Z,5.80
2022-11-28T03:25:29.638Z,5.90
2022-11-28T03:30:40.097Z,5.90
2022-11-28T03:35:48.696Z,6.00
2022-11-28T03:40:57.496Z,6.00
2022-11-28T03:46:07.142Z,6.10
2022-11-28T03:51:17.011Z,6.10
2022-11-28T03:56:25.777Z,6.20
2022-11-28T04:01:35.239Z,6.20
2022-11-28T04:06:50.888Z,6.30
2022-11-28T04:11:57.811Z,6.30
2022-11-28T04:17:09.886Z,6.30
2022-11-28T04:22:19.473Z,6.40
2022-11-28T04:27:28.249Z,6.40
2022-11-28T04:32:34.169Z,6.40
2022-11-28T04:37:40.915Z,6.40
2022-11-28T04:42:52.595Z,6.40
2022-11-28T04:47:56.709Z,6.50
2022-11-28T04:53:07.154Z,6.50
2022-11-28T04:58:15.087Z,6.50
2022-11-28T05:03:19.409Z,6.50
2022-11-28T05:08:24.219Z,6.50
2022-11-28T05:13:27.683Z,6.50
2022-11-28T05:18:31.076Z,6.60
2022-11-28T05:23:36.162Z,6.60
2022-11-28T05:28:40.023Z,6.60
2022-11-28T05:33:43.734Z,6.60
2022-11-28T05:38:49.379Z,6.60
2022-11-28T05:43:53.668Z,6.60
2022-11-28T05:48:57.571Z,6.60
2022-11-28T05:54:02.446Z,6.60
2022-11-28T05:59:05.919Z,6.60
2022-11-28T06:04:09.342Z,6.50
2022-11-28T06:09:14.106Z,6.50
2022-11-28T06:14:17.439Z,6.50
2022-11-28T06:19:20.844Z,6.50
2022-11-28T06:24:25.804Z,6.50
2022-11-28T06:29:29.279Z,6.60
2022-11-28T06:34:33.281Z,6.50
2022-11-28T06:39:38.438Z,6.50
2022-11-28T06:44:41.808Z,6.50
2022-11-28T06:49:45.450Z,6.50
2022-11-28T06:54:50.310Z,6.60
2022-11-28T06:59:53.891Z,6.60
2022-11-28T07:04:57.588Z,6.60
2022-11-28T07:10:03.210Z,6.60
2022-11-28T07:15:08.539Z,6.60
2022-11-28T07:20:12.805Z,6.60
2022-11-28T07:25:17.940Z,6.60
2022-11-28T07:30:21.515Z,6.60
2022-11-28T07:35:25.379Z,6.50
2022-11-28T07:40:30.510Z,6.50
2022-11-28T07:45:53.923Z,6.50
2022-11-28T07:50:57.506Z,6.50
2022-11-28T07:56:04.745Z,6.60
2022-11-28T08:01:12.796Z,6.60
2022-11-28T08:06:17.822Z,6.50
2022-11-28T08:11:24.756Z,6.50
2022-11-28T08:16:29.836Z,6.60
2022-11-28T08:21:35.526Z,6.70
2022-11-28T08:26:40.429Z,6.70
2022-11-28T08:31:43.843Z,6.70
2022-11-28T08:36:48.838Z,6.70
2022-11-28T08:41:57.871Z,6.70
2022-11-28T08:47:01.493Z,6.70
2022-11-28T08:52:05.357Z,6.70
2022-11-28T08:57:10.593Z,6.80
2022-11-28T09:02:14.037Z,6.80
2022-11-28T09:07:17.801Z,6.80
2022-11-28T09:12:22.596Z,6.90
2022-11-28T09:17:26.125Z,7.00
2022-11-28T09:22:30.364Z,7.00
2022-11-28T09:27:35.344Z,7.00
2022-11-28T09:32:38.746Z,7.00
2022-11-28T09:37:42.504Z,7.00
2022-11-28T09:42:48.106Z,7.00
2022-11-28T09:47:55.430Z,7.10
2022-11-28T09:53:05.846Z,7.10
2022-11-28T09:58:16.648Z,7.20
2022-11-28T10:03:36.555Z,7.20
2022-11-28T10:08:50.557Z,7.30
2022-11-28T10:14:08.428Z,7.30
2022-11-28T10:19:52.421Z,7.40
2022-11-28T10:24:42.668Z,7.50
2022-11-28T10:29:53.053Z,7.60
2022-11-28T10:35:01.415Z,7.70
2022-11-28T10:40:27.762Z,7.70
2022-11-28T10:45:43.393Z,7.80
2022-11-28T10:50:54.068Z,7.90
2022-11-28T10:56:11.207Z,8.00
2022-11-28T11:01:16.680Z,8.10
2022-11-28T11:06:20.176Z,8.20
2022-11-28T11:11:27.754Z,8.20
2022-11-28T11:16:53.016Z,8.30
2022-11-28T11:22:01.678Z,8.30
2022-11-28T11:27:17.459Z,8.40
2022-11-28T11:32:26.532Z,8.40
2022-11-28T11:37:35.144Z,8.40
2022-11-28T11:42:55.679Z,8.50
2022-11-28T11:48:02.196Z,8.50
2022-11-28T11:53:07.952Z,8.50
2022-11-28T11:58:15.003Z,8.50
2022-11-28T12:03:28.431Z,8.50
2022-11-28T12:08:36.376Z,8.60
2022-11-28T12:13:39.784Z,8.60
2022-11-28T12:18:56.945Z,8.60
2022-11-28T12:24:12.451Z,8.60
2022-11-28T12:29:47.569Z,8.60
2022-11-28T12:35:07.642Z,8.70
2022-11-28T12:40:19.040Z,8.70
2022-11-28T12:45:47.637Z,8.70
2022-11-28T12:51:00.373Z,8.70
2022-11-28T12:56:14.915Z,8.70
2022-11-28T13:01:32.330Z,8.60
2022-11-28T13:06:46.626Z,8.60
2022-11-28T13:12:01.013Z,8.60
2022-11-28T13:17:16.156Z,8.60
2022-11-28T13:22:25.146Z,8.50
2022-11-28T13:27:36.460Z,8.50
2022-11-28T13:32:46.433Z,8.40
2022-11-28T13:43:30.827Z,8.40
2022-11-28T13:49:14.316Z,8.30
2022-11-28T13:54:53.114Z,8.30
2022-11-28T14:00:22.645Z,8.20
2022-11-28T14:05:29.741Z,8.20
2022-11-28T14:10:50.605Z,8.20
2022-11-28T14:16:07.844Z,8.10
2022-11-28T14:21:30.094Z,8.10
2022-11-28T14:26:37.907Z,8.00
2022-11-28T14:31:55.183Z,8.00
2022-11-28T14:37:53.152Z,7.90
2022-11-28T14:43:27.995Z,7.80
2022-11-28T14:48:31.896Z,7.80
2022-11-28T14:53:44.716Z,7.70
2022-11-28T14:58:50.823Z,7.60
2022-11-28T15:04:00.035Z,7.60
2022-11-28T15:09:08.151Z,7.50
2022-11-28T15:14:22.500Z,7.50
2022-11-28T15:19:30.281Z,7.50
2022-11-28T15:24:35.651Z,7.50
2022-11-28T15:29:40.564Z,7.40
2022-11-28T15:34:44.254Z,7.40
2022-11-28T15:39:50.286Z,7.40
2022-11-28T15:44:58.381Z,7.40
2022-11-28T15:50:05.516Z,7.50
2022-11-28T15:55:16.629Z,7.50
2022-11-28T16:00:24.604Z,7.50
2022-11-28T16:05:28.538Z,7.50
2022-11-28T16:10:37.043Z,7.50
2022-11-28T16:15:50.173Z,7.50
2022-11-28T16:20:54.724Z,7.50
2022-11-28T16:26:03.424Z,7.50
2022-11-28T16:31:14.312Z,7.50
2022-11-28T16:36:22.849Z,7.50
2022-11-28T16:41:30.594Z,7.50
2022-11-28T16:46:38.114Z,7.50
2022-11-28T16:51:42.106Z,7.50
2022-11-28T16:56:45.542Z,7.50
2022-11-28T17:01:54.464Z,7.50
2022-11-28T17:07:01.726Z,7.50
2022-11-28T17:12:08.131Z,7.50
2022-11-28T17:17:15.544Z,7.50
2022-11-28T17:22:21.341Z,7.50
2022-11-28T17:27:24.742Z,7.50
2022-11-28T17:32:29.558Z,7.50
2022-11-28T17:37:33.121Z,7.50
2022-11-28T17:42:36.657Z,7.50
2022-11-28T17:47:41.408Z,7.50
2022-11-28T17:52:44.885Z,7.50
2022-11-28T17:57:48.372Z,7.50
2022-11-28T18:02:53.177Z,7.50
2022-11-28T18:07:56.747Z,7.50
2022-11-28T18:13:00.198Z,7.50
2022-11-28T18:18:05.499Z,7.40
2022-11-28T18:23:12.164Z,7.40
2022-11-28T18:28:19.029Z,7.40
2022-11-28T18:33:24.068Z,7.40
2022-11-28T18:38:27.439Z,7.40
2022-11-28T18:43:30.832Z,7.40
2022-11-28T18:48:39.216Z,7.30
2022-11-28T18:53:43.551Z,7.30
2022-11-28T18:58:49.117Z,7.30
2022-11-28T19:03:57.136Z,7.30
2022-11-28T19:09:02.248Z,7.20
2022-11-28T19:14:08.029Z,7.10
2022-11-28T19:19:13.199Z,7.10
2022-11-28T19:24:16.591Z,7.10
2022-11-28T19:29:20.368Z,7.10
2022-11-28T19:34:25.931Z,7.10
2022-11-28T19:39:29.409Z,7.00
2022-11-28T19:44:33.167Z,7.00
2022-11-28T19:49:38.295Z,6.90
2022-11-28T19:54:41.981Z,6.90
2022-11-28T19:59:46.005Z,6.90
2022-11-28T20:04:51.199Z,6.90
2022-11-28T20:09:54.652Z,6.90
2022-11-28T20:14:58.050Z,6.90
2022-11-28T20:20:03.165Z,6.90
2022-11-28T20:25:07.612Z,6.90
2022-11-28T20:30:13.239Z,6.80
2022-11-28T20:35:19.123Z,6.80
2022-11-28T20:40:22.490Z,6.80
2022-11-28T20:45:25.890Z,6.70
2022-11-28T20:50:30.651Z,6.70
2022-11-28T20:55:34.026Z,6.70
2022-11-28T21:00:37.511Z,6.70
2022-11-28T21:05:42.311Z,6.70
2022-11-28T21:10:46.196Z,6.70
2022-11-28T21:15:49.791Z,6.70
2022-11-28T21:20:54.484Z,6.70
2022-11-28T21:25:57.823Z,6.70
2022-11-28T21:31:05.831Z,6.70
2022-11-28T21:36:13.331Z,6.70
2022-11-28T21:41:16.728Z,6.70
2022-11-28T21:46:20.173Z,6.70
2022-11-28T21:51:26.031Z,6.70
2022-11-28T21:56:29.563Z,6.70
2022-11-28T22:01:33.143Z,6.70
2022-11-28T22:06:38.442Z,6.70
2022-11-28T22:11:41.887Z,6.70
2022-11-28T22:16:45.264Z,6.70
2022-11-28T22:21:51.701Z,6.70
2022-11-28T22:26:57.455Z,6.70
2022-11-28T22:32:00.951Z,6.70
2022-11-28T22:37:05.668Z,6.70
2022-11-28T22:42:09.129Z,6.70
2022-11-28T22:47:12.499Z,6.60
2022-11-28T22:52:17.988Z,6.60
2022-11-28T22:57:21.380Z,6.60
2022-11-28T23:02:24.896Z,6.60
2022-11-28T23:07:30.265Z,6.60
2022-11-28T23:12:33.596Z,6.50
2022-11-28T23:17:37.234Z,6.50
2022-11-28T23:22:41.956Z,6.50
2022-11-28T23:27:45.277Z,6.50
2022-11-28T23:32:48.631Z,6.50
2022-11-28T23:37:53.384Z,6.50
2022-11-28T23:42:56.810Z,6.50
2022-11-28T23:48:00.219Z,6.50
2022-11-28T23:53:04.928Z,6.50
2022-11-28T23:58:08.731Z,6.50
